Time;durP1;ratioP1;P1;durP2;ratioP2;P2;SDS_P1;SDS_P2;PMS_P1;PMS_P2;Temp;Humidity;BMP_temperature;BMP_pressure;BME280_temperature;BME280_humidity;BME280_pressure;Samples;Min_cycle;Max_cycle;Signal;HPM_P1;HPM_P2
2021/07/13 16:05:18;;;;;;;5.70;1.60;;;;;;;30.00;44.25;100827.16;3813162;27;43860;-33
2021/07/13 16:07:51;;;;;;;8.25;1.50;;;;;;;30.05;44.21;100834.63;4848585;24;69282;-32
2021/07/13 16:10:21;;;;;;;2.35;1.60;;;;;;;30.02;44.33;100835.06;4797003;29;67042;-32
2021/07/13 16:12:57;;;;;;;2.85;1.50;;;;;;;30.04;44.20;100835.69;4794996;29;70063;-32
2021/07/13 16:15:27;;;;;;;4.35;1.33;;;;;;;29.97;43.89;100824.88;4791890;29;66665;-32
2021/07/13 16:17:59;;;;;;;1.83;1.50;;;;;;;30.01;44.17;100828.00;4794888;29;70242;-33
2021/07/13 16:20:30;;;;;;;5.40;1.30;;;;;;;29.95;43.13;100809.91;4794870;29;65601;-34
2021/07/13 16:23:00;;;;;;;3.75;1.50;;;;;;;30.00;43.74;100815.50;4793577;29;70566;-32
2021/07/13 16:25:30;;;;;;;5.15;1.50;;;;;;;30.00;44.06;100802.81;4793019;29;66183;-32
2021/07/13 16:28:02;;;;;;;3.78;1.38;;;;;;;29.91;44.89;100784.34;4792039;29;69712;-32
2021/07/13 16:30:32;;;;;;;1.95;1.17;;;;;;;29.99;44.70;100792.22;4790232;29;66064;-33
2021/07/13 16:33:03;;;;;;;4.75;1.52;;;;;;;30.00;44.42;100783.03;4794720;29;70188;-33
2021/07/13 16:35:33;;;;;;;2.80;1.85;;;;;;;30.01;43.97;100784.72;4792659;29;65402;-34
2021/07/13 16:38:03;;;;;;;2.15;1.55;;;;;;;29.96;44.33;100781.84;4793419;29;70219;-32
2021/07/13 16:40:34;;;;;;;2.17;1.70;;;;;;;30.00;43.91;100780.34;4792582;29;66234;-32
2021/07/13 16:43:04;;;;;;;3.40;1.67;;;;;;;29.99;43.89;100778.69;4792510;29;69200;-34
2021/07/13 16:45:34;;;;;;;1.63;1.40;;;;;;;29.99;44.15;100776.00;4798056;29;67379;-34
2021/07/13 16:48:04;;;;;;;1.42;1.30;;;;;;;29.97;43.90;100775.38;4793362;29;69943;-33
2021/07/13 16:50:35;;;;;;;2.58;1.50;;;;;;;29.96;44.02;100777.25;4783303;29;65216;-34
2021/07/13 16:53:05;;;;;;;3.55;1.80;;;;;;;29.96;44.09;100776.44;4790213;29;70247;-32
2021/07/13 16:55:37;;;;;;;1.83;1.63;;;;;;;29.91;43.66;100773.53;4794458;29;65809;-35
2021/07/13 16:58:07;;;;;;;1.85;1.60;;;;;;;29.89;44.34;100775.63;4795896;29;70696;-33
2021/07/13 17:00:37;;;;;;;1.73;1.48;;;;;;;29.91;43.38;100779.78;4798721;29;65560;-32
2021/07/13 17:03:08;;;;;;;2.38;1.55;;;;;;;29.88;43.64;100779.38;4796651;29;69912;-36
2021/07/13 17:05:59;;;;;;;2.08;1.77;;;;;;;29.86;43.10;100776.06;4796036;29;65599;-35
2021/07/13 17:08:58;;;;;;;2.85;1.90;;;;;;;29.86;44.08;100778.75;5113635;27;44477;-33
2021/07/13 17:11:33;;;;;;;7.32;1.92;;;;;;;29.84;43.83;100774.41;5109558;27;70120;-34
2021/07/13 17:14:23;;;;;;;4.20;1.75;;;;;;;29.83;43.66;100778.13;5109484;27;65194;-34
2021/07/13 17:17:11;;;;;;;4.22;1.58;;;;;;;29.81;43.83;100769.44;5111323;27;69392;-32
2021/07/13 17:19:42;;;;;;;3.58;1.67;;;;;;;29.79;43.79;100762.59;5115119;27;66315;-31
2021/07/13 17:22:11;;;;;;;3.45;1.80;;;;;;;29.79;43.38;100766.09;5116214;27;70218;-31
2021/07/13 17:24:42;;;;;;;6.97;1.70;;;;;;;29.77;43.23;100748.44;5110604;27;65479;-31
2021/07/13 17:27:12;;;;;;;2.08;1.70;;;;;;;29.76;43.13;100750.31;5125609;27;70402;-33
2021/07/13 17:29:43;;;;;;;1.65;1.52;;;;;;;29.75;43.44;100745.94;5111284;27;66007;-31
2021/07/13 17:32:12;;;;;;;1.63;1.40;;;;;;;29.73;42.98;100745.34;5106922;27;69598;-32
2021/07/13 17:34:44;;;;;;;2.35;1.75;;;;;;;29.74;43.39;100741.59;5094506;27;66373;-31
2021/07/13 17:37:14;;;;;;;11.20;1.40;;;;;;;29.70;43.70;100753.91;5112677;27;69801;-32
2021/07/13 17:39:45;;;;;;;1.80;1.33;;;;;;;29.68;42.93;100747.03;5113520;27;66709;-33
2021/07/13 17:42:15;;;;;;;1.95;1.67;;;;;;;29.69;43.17;100760.31;5112753;27;69887;-34
2021/07/13 17:44:44;;;;;;;2.53;1.40;;;;;;;29.69;43.21;100749.50;5107142;27;66115;-34
2021/07/13 17:47:16;;;;;;;2.38;1.45;;;;;;;29.63;42.85;100747.66;5094019;27;70224;-32
2021/07/13 17:49:46;;;;;;;1.75;1.60;;;;;;;29.65;43.07;100742.06;5094626;27;66506;-30
2021/07/13 17:52:16;;;;;;;1.63;1.48;;;;;;;29.63;42.89;100728.75;5114697;27;70156;-32
2021/07/13 17:55:09;;;;;;;;;;;;;;;29.39;42.54;100728.41;5090870;27;67058;-31
2021/07/13 17:57:39;;;;;;;2.25;1.58;;;;;;;29.60;43.23;100715.63;5093867;27;71594;-30
2021/07/13 18:00:12;;;;;;;1.70;1.40;;;;;;;29.37;42.25;100681.88;5111936;27;66263;-32
2021/07/13 18:02:42;;;;;;;1.88;1.77;;;;;;;29.56;43.05;100706.28;5111295;27;69551;-32
2021/07/13 18:05:12;;;;;;;1.73;1.45;;;;;;;29.51;42.28;100703.44;5112210;27;66143;-32
2021/07/13 18:07:43;;;;;;;1.50;1.30;;;;;;;29.53;42.20;100695.91;5122670;27;69512;-31
2021/07/13 18:10:14;;;;;;;1.38;1.27;;;;;;;29.51;42.71;100689.91;5096437;27;65947;-31
2021/07/13 18:12:45;;;;;;;1.60;1.50;;;;;;;29.49;42.41;100687.41;5091361;27;70068;-30
2021/07/13 18:15:15;;;;;;;1.77;1.67;;;;;;;29.49;42.31;100689.28;5110049;27;66809;-31
2021/07/13 18:17:48;;;;;;;1.88;1.77;;;;;;;29.43;42.09;100684.75;5096682;27;70138;-31
2021/07/13 18:20:18;;;;;;;1.92;1.83;;;;;;;29.33;41.95;100663.59;5085496;27;65510;-32
2021/07/13 18:22:48;;;;;;;2.28;1.77;;;;;;;29.41;42.10;100679.56;5099003;27;70061;-32
2021/07/13 18:25:18;;;;;;;1.75;1.65;;;;;;;29.46;43.11;100679.75;5099370;27;65346;-32
2021/07/13 18:27:51;;;;;;;3.17;1.90;;;;;;;29.45;42.86;100678.09;5081753;27;69716;-31
2021/07/13 18:30:21;;;;;;;2.40;1.85;;;;;;;29.37;43.09;100672.94;5080103;27;66766;-31
2021/07/13 18:32:51;;;;;;;5.05;2.13;;;;;;;29.37;43.09;100665.66;5100470;27;69499;-32
2021/07/13 18:35:22;;;;;;;5.53;1.98;;;;;;;29.40;42.90;100665.22;5075040;27;65432;-31
2021/07/13 18:37:51;;;;;;;2.80;2.53;;;;;;;29.39;43.13;100652.75;5082494;27;69580;-30
2021/07/13 18:40:22;;;;;;;2.70;2.50;;;;;;;29.35;43.13;100645.28;5081396;27;65232;-32
2021/07/13 18:42:55;;;;;;;2.33;2.13;;;;;;;29.38;43.21;100640.28;5101667;27;69923;-31
2021/07/13 18:45:25;;;;;;;4.68;2.03;;;;;;;29.38;43.36;100639.47;5083378;27;66435;-31
2021/07/13 18:47:55;;;;;;;2.85;2.00;;;;;;;29.36;43.27;100631.59;5097374;27;69764;-31
2021/07/13 18:50:26;;;;;;;2.38;2.28;;;;;;;29.34;42.98;100624.72;5099730;27;65309;-31
2021/07/13 18:52:56;;;;;;;10.95;2.45;;;;;;;29.34;43.65;100625.56;5081627;27;69909;-30
2021/07/13 18:55:26;;;;;;;5.18;2.38;;;;;;;29.34;42.88;100622.84;5098635;27;65114;-31
2021/07/13 18:57:56;;;;;;;9.07;3.10;;;;;;;29.32;43.29;100624.94;5096291;27;69870;-31
2021/07/13 19:00:26;;;;;;;4.43;2.65;;;;;;;29.28;42.87;100612.06;5098949;27;66068;-31
2021/07/13 19:02:56;;;;;;;2.45;2.25;;;;;;;29.30;42.80;100620.78;5103558;27;70009;-32
2021/07/13 19:05:26;;;;;;;7.25;2.50;;;;;;;29.27;42.82;100626.63;5097992;27;66869;-31
2021/07/13 19:07:56;;;;;;;10.77;2.70;;;;;;;29.28;42.48;100629.13;5101206;27;69651;-31
2021/07/13 19:10:28;;;;;;;2.20;1.80;;;;;;;29.28;42.38;100623.72;5097270;27;65799;-31
2021/07/13 19:13:03;;;;;;;4.60;2.33;;;;;;;29.23;42.67;100615.44;5093577;27;71431;-31
2021/07/13 19:15:34;;;;;;;4.47;2.60;;;;;;;29.20;42.78;100626.69;5082688;27;66040;-31
2021/07/13 19:18:04;;;;;;;2.03;1.83;;;;;;;29.22;42.89;100624.56;5052932;27;69224;-31
2021/07/13 19:20:35;;;;;;;5.40;2.00;;;;;;;29.18;43.08;100634.16;5114299;27;66302;-31
2021/07/13 19:23:07;;;;;;;2.05;1.95;;;;;;;29.15;42.79;100634.59;5096823;27;71086;-32
2021/07/13 19:25:36;;;;;;;4.10;1.85;;;;;;;29.18;42.38;100639.56;5099028;27;65342;-31
2021/07/13 19:28:07;;;;;;;7.10;2.10;;;;;;;29.13;42.53;100642.06;5097233;27;69323;-32
2021/07/13 19:30:38;;;;;;;2.20;2.00;;;;;;;29.13;41.95;100639.38;5098538;27;66343;-30
2021/07/13 19:33:12;;;;;;;3.50;2.20;;;;;;;29.15;42.63;100650.78;5081961;27;70089;-31
2021/07/13 19:38:19;;;;;;;6.32;2.15;;;;;;;28.91;42.46;100615.31;5102648;27;72026;-31
2021/07/13 19:40:50;;;;;;;2.67;2.47;;;;;;;29.11;42.61;100644.16;5094810;27;67259;-31
2021/07/13 19:43:28;;;;;;;1.92;1.83;;;;;;;29.11;42.46;100622.53;5098819;27;69817;-32
2021/07/13 19:45:58;;;;;;;2.58;2.35;;;;;;;29.08;42.05;100607.59;5077793;27;65697;-31
2021/07/13 19:48:29;;;;;;;3.05;1.95;;;;;;;29.07;42.54;100597.84;5097938;27;70470;-31
2021/07/13 19:50:59;;;;;;;2.95;2.75;;;;;;;29.05;42.29;100588.28;5097397;27;66282;-30
2021/07/13 19:53:29;;;;;;;2.85;2.55;;;;;;;29.05;41.89;100585.59;5095229;27;70374;-31
2021/07/13 19:55:59;;;;;;;2.50;2.40;;;;;;;29.04;42.03;100594.75;5100296;27;65338;-31
2021/07/13 19:58:29;;;;;;;3.08;2.50;;;;;;;29.03;42.53;100596.63;5099085;27;70560;-31
2021/07/13 20:00:59;;;;;;;2.85;2.42;;;;;;;29.03;41.57;100609.25;5096394;27;66456;-32
2021/07/13 20:03:29;;;;;;;2.72;2.53;;;;;;;29.00;41.81;100617.78;5098358;27;69966;-30
2021/07/13 20:06:00;;;;;;;2.88;2.40;;;;;;;29.00;41.98;100625.88;5101228;27;65582;-30
2021/07/13 20:08:30;;;;;;;3.88;2.78;;;;;;;28.97;41.88;100632.53;5076817;27;70052;-32
2021/07/13 20:11:02;;;;;;;4.57;2.97;;;;;;;28.91;41.73;100631.50;5081298;27;64655;-31
2021/07/13 20:13:32;;;;;;;3.97;3.67;;;;;;;28.95;41.64;100650.84;5097229;27;69276;-32
2021/07/13 20:16:02;;;;;;;5.00;4.10;;;;;;;28.94;41.63;100643.75;5064832;27;66259;-31
2021/07/13 20:18:33;;;;;;;4.40;4.10;;;;;;;28.94;42.10;100649.97;5082209;27;70155;-30
2021/07/13 20:21:03;;;;;;;4.85;4.55;;;;;;;28.93;42.04;100644.81;5098824;27;66436;-31
2021/07/13 20:23:33;;;;;;;5.20;4.80;;;;;;;28.94;43.65;100643.75;5096438;27;70287;-31
2021/07/13 20:26:03;;;;;;;5.15;4.75;;;;;;;28.99;45.39;100651.22;5097750;27;66261;-31
2021/07/13 20:28:34;;;;;;;5.70;5.13;;;;;;;29.01;45.91;100649.97;5094679;27;69456;-30
2021/07/13 20:31:04;;;;;;;5.07;4.73;;;;;;;29.06;47.75;100638.56;5077716;27;65747;-29
2021/07/13 20:33:35;;;;;;;4.85;4.50;;;;;;;29.21;48.67;100655.34;5100597;27;70001;-31
2021/07/13 20:36:07;;;;;;;6.30;4.35;;;;;;;29.16;47.21;100630.84;5095483;27;65966;-30
2021/07/13 20:38:37;;;;;;;4.47;4.18;;;;;;;29.23;46.28;100647.84;5095410;27;69257;-30
2021/07/13 20:41:07;;;;;;;4.10;3.80;;;;;;;29.22;46.08;100643.47;5094482;27;66179;-30
2021/07/13 20:43:37;;;;;;;4.72;4.18;;;;;;;29.20;45.42;100642.03;5096048;27;69454;-29
2021/07/13 20:46:07;;;;;;;4.18;3.60;;;;;;;29.11;44.65;100634.19;5097319;27;66162;-30
2021/07/13 20:48:37;;;;;;;4.00;3.70;;;;;;;29.12;44.97;100637.72;5098384;27;70129;-31
2021/07/13 20:51:07;;;;;;;5.18;3.50;;;;;;;29.12;44.48;100646.66;5097240;27;65285;-31
2021/07/13 20:53:37;;;;;;;4.47;2.90;;;;;;;29.06;43.76;100657.47;5096392;27;70019;-32
2021/07/13 20:56:08;;;;;;;3.78;3.47;;;;;;;29.03;44.16;100663.25;5084142;27;65707;-32
2021/07/13 20:58:38;;;;;;;3.78;3.55;;;;;;;29.02;43.90;100673.22;5081387;27;70158;-31
2021/07/13 21:01:08;;;;;;;3.25;3.05;;;;;;;28.99;43.61;100672.84;5079075;27;65505;-31
2021/07/13 21:03:38;;;;;;;3.58;2.80;;;;;;;29.02;45.15;100678.63;5078637;27;68763;-31
2021/07/13 21:06:09;;;;;;;3.17;2.97;;;;;;;29.07;46.19;100686.13;5099941;27;66920;-30
2021/07/13 21:08:39;;;;;;;3.47;2.95;;;;;;;29.13;47.00;100682.59;5097014;27;69763;-30
2021/07/13 21:11:09;;;;;;;3.10;2.90;;;;;;;29.17;48.48;100670.31;5098332;27;66155;-31
2021/07/13 21:13:39;;;;;;;3.00;2.78;;;;;;;29.23;49.12;100674.88;5094103;27;69997;-30
2021/07/13 21:16:09;;;;;;;3.75;3.22;;;;;;;29.24;48.17;100668.41;5097084;27;65980;-30
2021/07/13 21:18:39;;;;;;;3.17;2.97;;;;;;;29.24;47.22;100662.19;5100107;27;70166;-31
2021/07/13 21:21:09;;;;;;;3.20;3.00;;;;;;;29.20;46.68;100664.50;5093184;27;65519;-31
2021/07/13 21:23:39;;;;;;;2.97;2.75;;;;;;;29.15;46.32;100667.00;5097248;27;69233;-30
2021/07/13 21:26:10;;;;;;;3.28;2.97;;;;;;;29.14;45.37;100670.72;5096645;27;66556;-31
2021/07/13 21:28:40;;;;;;;2.83;2.63;;;;;;;29.08;45.16;100671.59;5106243;27;69672;-30
2021/07/13 21:31:10;;;;;;;2.78;2.55;;;;;;;29.07;44.87;100670.75;5097910;27;66378;-30
2021/07/13 21:33:40;;;;;;;5.05;2.60;;;;;;;29.03;44.41;100674.06;5094919;27;69942;-30
2021/07/13 21:36:10;;;;;;;3.30;3.00;;;;;;;29.02;45.21;100678.63;5093103;27;66114;-30
2021/07/13 21:38:41;;;;;;;3.25;2.95;;;;;;;29.03;46.42;100684.84;5093326;27;70221;-30
2021/07/13 21:41:12;;;;;;;7.20;2.90;;;;;;;28.90;47.81;100664.97;5097908;27;67128;-30
2021/07/13 21:43:42;;;;;;;3.13;2.75;;;;;;;29.14;47.98;100700.44;5094466;27;70423;-31
2021/07/13 21:46:12;;;;;;;4.43;2.75;;;;;;;29.18;50.10;100698.97;5097434;27;66319;-31
2021/07/13 21:48:42;;;;;;;3.10;2.90;;;;;;;29.23;48.64;100701.88;5095391;27;69552;-31
2021/07/13 21:51:12;;;;;;;4.38;2.40;;;;;;;29.13;47.99;100696.91;5096235;27;66810;-32
2021/07/13 21:53:42;;;;;;;3.35;2.97;;;;;;;29.19;46.97;100711.44;5078624;27;69839;-31
2021/07/13 21:56:12;;;;;;;3.78;2.60;;;;;;;29.15;46.65;100711.03;5079665;27;66499;-31
2021/07/13 21:58:42;;;;;;;2.80;2.60;;;;;;;29.11;46.06;100708.97;5098052;27;70528;-30
2021/07/13 22:01:12;;;;;;;3.22;2.80;;;;;;;29.05;45.08;100707.13;5099146;27;65433;-30
2021/07/13 22:03:42;;;;;;;4.00;2.42;;;;;;;29.03;44.85;100707.34;5099768;27;69741;-30
2021/07/13 22:06:12;;;;;;;2.92;2.72;;;;;;;29.00;44.95;100706.88;5097390;27;65955;-31
2021/07/13 22:08:42;;;;;;;3.60;2.40;;;;;;;28.97;46.42;100700.03;5100232;27;70206;-31
2021/07/13 22:11:12;;;;;;;2.97;2.78;;;;;;;29.04;47.52;100702.78;5098886;27;66016;-31
2021/07/13 22:13:42;;;;;;;3.42;3.22;;;;;;;29.07;47.84;100702.34;5096115;27;69402;-31
2021/07/13 22:16:12;;;;;;;5.57;2.60;;;;;;;29.12;49.40;100710.66;5098830;27;65753;-31
2021/07/13 22:18:42;;;;;;;2.78;2.58;;;;;;;29.14;49.09;100708.53;5099347;27;68474;-30
2021/07/13 22:21:12;;;;;;;2.90;2.70;;;;;;;29.18;48.14;100717.88;5097706;27;66966;-31
2021/07/13 22:23:42;;;;;;;2.67;2.47;;;;;;;29.15;47.45;100719.16;5099541;27;69660;-30
2021/07/13 22:26:14;;;;;;;2.60;2.40;;;;;;;29.15;46.88;100715.63;5101212;27;66264;-31
2021/07/13 22:28:44;;;;;;;3.03;2.72;;;;;;;29.09;45.65;100713.78;5100866;27;69476;-31
2021/07/13 22:31:14;;;;;;;2.90;2.70;;;;;;;29.04;45.72;100706.28;5102281;27;66569;-31
2021/07/13 22:33:46;;;;;;;2.75;2.55;;;;;;;29.02;44.96;100707.50;5096739;27;69574;-31
2021/07/13 22:36:16;;;;;;;2.77;2.57;;;;;;;28.96;45.31;100695.69;5083331;27;66112;-31
2021/07/13 22:38:47;;;;;;;3.63;2.63;;;;;;;29.00;46.36;100693.38;5085592;27;69651;-32
2021/07/13 22:41:17;;;;;;;2.80;2.60;;;;;;;28.79;47.69;100656.69;5098573;27;65732;-31
2021/07/13 22:43:47;;;;;;;3.00;2.80;;;;;;;29.06;48.51;100688.03;5100060;27;70572;-32
2021/07/13 22:46:17;;;;;;;3.05;2.75;;;;;;;29.12;49.70;100689.03;5080163;27;65575;-32
2021/07/13 22:48:47;;;;;;;5.20;2.85;;;;;;;29.14;50.45;100678.81;5100165;27;69892;-31
2021/07/13 22:51:17;;;;;;;4.35;3.30;;;;;;;29.21;49.24;100687.75;5072614;27;66034;-31
2021/07/13 22:53:47;;;;;;;3.58;3.28;;;;;;;29.17;48.40;100679.25;5069909;27;69954;-31
2021/07/13 22:56:17;;;;;;;3.00;2.80;;;;;;;29.13;47.69;100674.47;5094367;27;65315;-33
2021/07/13 22:58:49;;;;;;;3.65;3.45;;;;;;;29.11;46.93;100671.16;5097337;27;70296;-30
2021/07/13 23:01:19;;;;;;;3.97;3.70;;;;;;;29.02;46.96;100662.44;5081436;27;65634;-31
2021/07/13 23:03:49;;;;;;;3.55;3.25;;;;;;;29.03;47.98;100665.94;5081945;27;68767;-30
2021/07/13 23:06:19;;;;;;;4.15;3.85;;;;;;;29.08;47.92;100671.59;5098643;27;66438;-32
2021/07/13 23:08:49;;;;;;;5.18;3.88;;;;;;;29.12;48.85;100667.44;5095451;27;69996;-31
2021/07/13 23:11:19;;;;;;;4.35;3.95;;;;;;;29.12;48.85;100652.06;5078586;27;66916;-30
2021/07/13 23:13:49;;;;;;;4.97;4.10;;;;;;;29.24;49.73;100660.31;5077876;27;70795;-33
2021/07/13 23:16:22;;;;;;;5.78;4.28;;;;;;;29.31;49.47;100661.13;5096818;27;65413;-31
2021/07/13 23:18:59;;;;;;;9.90;4.30;;;;;;;29.37;50.15;100654.03;5057334;27;69972;-30
2021/07/13 23:21:29;;;;;;;5.15;4.65;;;;;;;29.40;50.35;100642.78;5099274;27;66340;-31
2021/07/13 23:23:59;;;;;;;4.57;4.28;;;;;;;29.48;50.11;100649.81;5082591;27;70023;-34
2021/07/13 23:26:29;;;;;;;4.65;4.03;;;;;;;29.54;50.48;100648.94;5082061;27;66034;-33
2021/07/13 23:29:00;;;;;;;5.57;5.07;;;;;;;29.60;50.97;100642.66;5095630;27;70331;-31
2021/07/13 23:31:33;;;;;;;5.82;4.72;;;;;;;29.64;50.74;100640.38;5078900;27;66177;-32
2021/07/13 23:34:07;;;;;;;5.47;5.18;;;;;;;29.55;51.69;100612.75;5091707;27;69537;-30
2021/07/13 23:36:38;;;;;;;5.38;4.97;;;;;;;29.72;51.86;100632.81;5067577;27;66249;-32
2021/07/13 23:39:09;;;;;;;5.20;4.88;;;;;;;29.75;51.86;100629.69;5069539;27;69615;-34
2021/07/13 23:41:39;;;;;;;6.50;5.05;;;;;;;29.80;52.14;100621.75;5079766;27;65460;-33
2021/07/13 23:44:10;;;;;;;5.55;5.25;;;;;;;29.85;52.51;100621.09;5114751;27;70322;-33
2021/07/13 23:46:40;;;;;;;5.32;4.90;;;;;;;29.90;51.81;100617.75;5099152;27;65265;-32
2021/07/13 23:49:10;;;;;;;5.63;5.22;;;;;;;29.94;52.64;100624.34;5098837;27;70369;-32
2021/07/13 23:51:40;;;;;;;7.00;6.50;;;;;;;29.94;54.19;100617.06;5097255;27;65297;-32
2021/07/13 23:54:10;;;;;;;8.95;8.30;;;;;;;30.03;55.08;100606.81;5098870;27;69940;-31
2021/07/13 23:56:40;;;;;;;9.50;8.52;;;;;;;30.08;57.65;100609.66;5097994;27;65544;-31
2021/07/13 23:59:10;;;;;;;23.25;9.50;;;;;;;30.13;56.92;100590.91;5099688;27;69988;-32
